sensor_id;sensor_type;location;lat;lon;timestamp;P1;durP1;ratioP1;P2;durP2;ratioP2
18046;SDS011;9148;51.454;13.862;2023-06-14T00:01:32;1.17;;;0.97;;
18046;SDS011;9148;51.454;13.862;2023-06-14T00:03:59;1.00;;;0.70;;
18046;SDS011;9148;51.454;13.862;2023-06-14T00:06:29;1.73;;;1.20;;
18046;SDS011;9148;51.454;13.862;2023-06-14T00:08:55;1.97;;;1.17;;
18046;SDS011;9148;51.454;13.862;2023-06-14T00:11:21;0.87;;;0.70;;
18046;SDS011;9148;51.454;13.862;2023-06-14T00:13:47;1.13;;;0.93;;
18046;SDS011;9148;51.454;13.862;2023-06-14T00:16:12;1.33;;;0.90;;
18046;SDS011;9148;51.454;13.862;2023-06-14T00:18:38;0.97;;;0.93;;
18046;SDS011;9148;51.454;13.862;2023-06-14T00:21:04;1.00;;;0.87;;
18046;SDS011;9148;51.454;13.862;2023-06-14T00:23:30;1.37;;;1.27;;
18046;SDS011;9148;51.454;13.862;2023-06-14T00:25:56;1.57;;;1.00;;
18046;SDS011;9148;51.454;13.862;2023-06-14T00:28:21;1.50;;;0.87;;
18046;SDS011;9148;51.454;13.862;2023-06-14T00:30:47;0.80;;;0.50;;
18046;SDS011;9148;51.454;13.862;2023-06-14T00:33:13;1.23;;;0.93;;
18046;SDS011;9148;51.454;13.862;2023-06-14T00:35:38;1.80;;;1.37;;
18046;SDS011;9148;51.454;13.862;2023-06-14T00:38:04;1.50;;;1.40;;
18046;SDS011;9148;51.454;13.862;2023-06-14T00:40:30;2.03;;;1.30;;
18046;SDS011;9148;51.454;13.862;2023-06-14T00:42:56;1.40;;;1.17;;
18046;SDS011;9148;51.454;13.862;2023-06-14T00:45:21;0.73;;;0.73;;
18046;SDS011;9148;51.454;13.862;2023-06-14T00:47:47;2.43;;;0.93;;
18046;SDS011;9148;51.454;13.862;2023-06-14T00:50:16;1.07;;;0.50;;
18046;SDS011;9148;51.454;13.862;2023-06-14T00:52:41;1.03;;;0.77;;
18046;SDS011;9148;51.454;13.862;2023-06-14T00:55:07;1.27;;;0.80;;
18046;SDS011;9148;51.454;13.862;2023-06-14T00:57:33;1.63;;;0.83;;
18046;SDS011;9148;51.454;13.862;2023-06-14T01:00:03;1.00;;;0.87;;
18046;SDS011;9148;51.454;13.862;2023-06-14T01:02:33;0.83;;;0.80;;
18046;SDS011;9148;51.454;13.862;2023-06-14T01:05:03;2.03;;;0.70;;
18046;SDS011;9148;51.454;13.862;2023-06-14T01:10:46;0.60;;;0.60;;
18046;SDS011;9148;51.454;13.862;2023-06-14T01:13:39;2.20;;;1.57;;
18046;SDS011;9148;51.454;13.862;2023-06-14T01:16:10;1.27;;;1.17;;
18046;SDS011;9148;51.454;13.862;2023-06-14T01:18:35;1.43;;;1.10;;
18046;SDS011;9148;51.454;13.862;2023-06-14T01:21:01;1.17;;;0.80;;
18046;SDS011;9148;51.454;13.862;2023-06-14T01:23:30;1.33;;;1.00;;
18046;SDS011;9148;51.454;13.862;2023-06-14T01:26:00;1.43;;;0.80;;
18046;SDS011;9148;51.454;13.862;2023-06-14T01:28:28;1.50;;;1.40;;
18046;SDS011;9148;51.454;13.862;2023-06-14T01:30:57;1.43;;;1.10;;
18046;SDS011;9148;51.454;13.862;2023-06-14T01:33:29;0.97;;;0.90;;
18046;SDS011;9148;51.454;13.862;2023-06-14T01:35:56;0.97;;;0.87;;
18046;SDS011;9148;51.454;13.862;2023-06-14T01:38:24;1.13;;;0.87;;
18046;SDS011;9148;51.454;13.862;2023-06-14T01:40:51;1.20;;;1.10;;
18046;SDS011;9148;51.454;13.862;2023-06-14T01:43:20;1.43;;;1.00;;
18046;SDS011;9148;51.454;13.862;2023-06-14T01:45:47;1.30;;;1.20;;
18046;SDS011;9148;51.454;13.862;2023-06-14T01:48:14;1.33;;;1.03;;
18046;SDS011;9148;51.454;13.862;2023-06-14T01:50:40;1.87;;;1.07;;
18046;SDS011;9148;51.454;13.862;2023-06-14T01:53:09;1.77;;;1.40;;
18046;SDS011;9148;51.454;13.862;2023-06-14T01:55:36;1.43;;;1.17;;
18046;SDS011;9148;51.454;13.862;2023-06-14T01:58:04;2.20;;;1.17;;
18046;SDS011;9148;51.454;13.862;2023-06-14T02:00:30;1.13;;;1.03;;
18046;SDS011;9148;51.454;13.862;2023-06-14T02:02:56;1.87;;;1.30;;
18046;SDS011;9148;51.454;13.862;2023-06-14T02:05:22;1.20;;;1.10;;
18046;SDS011;9148;51.454;13.862;2023-06-14T02:07:49;2.20;;;0.90;;
18046;SDS011;9148;51.454;13.862;2023-06-14T02:10:15;2.30;;;1.10;;
18046;SDS011;9148;51.454;13.862;2023-06-14T02:12:42;1.23;;;0.87;;
18046;SDS011;9148;51.454;13.862;2023-06-14T02:15:08;1.40;;;1.30;;
18046;SDS011;9148;51.454;13.862;2023-06-14T02:17:42;1.90;;;1.30;;
18046;SDS011;9148;51.454;13.862;2023-06-14T02:20:17;1.30;;;1.03;;
18046;SDS011;9148;51.454;13.862;2023-06-14T02:22:44;2.17;;;1.27;;
18046;SDS011;9148;51.454;13.862;2023-06-14T02:25:10;1.13;;;1.03;;
18046;SDS011;9148;51.454;13.862;2023-06-14T02:27:36;3.63;;;1.37;;
18046;SDS011;9148;51.454;13.862;2023-06-14T02:30:01;2.77;;;1.37;;
18046;SDS011;9148;51.454;13.862;2023-06-14T02:32:28;1.83;;;1.47;;
18046;SDS011;9148;51.454;13.862;2023-06-14T02:34:53;1.90;;;1.43;;
18046;SDS011;9148;51.454;13.862;2023-06-14T02:37:19;2.17;;;1.40;;
18046;SDS011;9148;51.454;13.862;2023-06-14T02:39:45;1.50;;;1.10;;
18046;SDS011;9148;51.454;13.862;2023-06-14T02:42:11;1.40;;;1.27;;
18046;SDS011;9148;51.454;13.862;2023-06-14T02:44:37;2.03;;;0.90;;
18046;SDS011;9148;51.454;13.862;2023-06-14T02:47:03;4.53;;;1.20;;
18046;SDS011;9148;51.454;13.862;2023-06-14T02:49:29;1.43;;;1.33;;
18046;SDS011;9148;51.454;13.862;2023-06-14T02:51:56;2.87;;;1.63;;
18046;SDS011;9148;51.454;13.862;2023-06-14T02:54:21;1.50;;;1.40;;
18046;SDS011;9148;51.454;13.862;2023-06-14T02:56:47;1.00;;;0.90;;
18046;SDS011;9148;51.454;13.862;2023-06-14T02:59:13;3.40;;;1.20;;
18046;SDS011;9148;51.454;13.862;2023-06-14T03:01:40;2.60;;;1.63;;
18046;SDS011;9148;51.454;13.862;2023-06-14T03:04:09;2.30;;;1.87;;
18046;SDS011;9148;51.454;13.862;2023-06-14T03:06:34;1.60;;;1.37;;
18046;SDS011;9148;51.454;13.862;2023-06-14T03:09:01;6.37;;;1.37;;
18046;SDS011;9148;51.454;13.862;2023-06-14T03:11:31;1.80;;;1.53;;
18046;SDS011;9148;51.454;13.862;2023-06-14T03:13:57;2.60;;;1.23;;
18046;SDS011;9148;51.454;13.862;2023-06-14T03:16:23;1.33;;;1.20;;
18046;SDS011;9148;51.454;13.862;2023-06-14T03:18:52;3.03;;;1.57;;
18046;SDS011;9148;51.454;13.862;2023-06-14T03:21:18;2.57;;;2.20;;
18046;SDS011;9148;51.454;13.862;2023-06-14T03:23:45;1.60;;;1.50;;
18046;SDS011;9148;51.454;13.862;2023-06-14T03:26:11;1.53;;;1.40;;
18046;SDS011;9148;51.454;13.862;2023-06-14T03:28:42;1.93;;;1.47;;
18046;SDS011;9148;51.454;13.862;2023-06-14T03:31:12;1.03;;;1.03;;
18046;SDS011;9148;51.454;13.862;2023-06-14T03:33:38;1.50;;;1.40;;
18046;SDS011;9148;51.454;13.862;2023-06-14T03:36:05;2.33;;;1.67;;
18046;SDS011;9148;51.454;13.862;2023-06-14T03:38:31;2.07;;;1.53;;
18046;SDS011;9148;51.454;13.862;2023-06-14T03:40:57;1.03;;;1.03;;
18046;SDS011;9148;51.454;13.862;2023-06-14T03:43:23;1.03;;;0.93;;
18046;SDS011;9148;51.454;13.862;2023-06-14T03:45:49;3.57;;;1.70;;
18046;SDS011;9148;51.454;13.862;2023-06-14T03:48:16;2.00;;;1.73;;
18046;SDS011;9148;51.454;13.862;2023-06-14T03:50:42;2.70;;;1.70;;
18046;SDS011;9148;51.454;13.862;2023-06-14T03:53:07;2.40;;;2.00;;
18046;SDS011;9148;51.454;13.862;2023-06-14T03:55:34;1.90;;;1.80;;
18046;SDS011;9148;51.454;13.862;2023-06-14T03:58:00;1.70;;;1.50;;
18046;SDS011;9148;51.454;13.862;2023-06-14T04:00:26;1.77;;;1.67;;
18046;SDS011;9148;51.454;13.862;2023-06-14T04:02:51;2.07;;;1.87;;
18046;SDS011;9148;51.454;13.862;2023-06-14T04:05:18;2.17;;;1.83;;
18046;SDS011;9148;51.454;13.862;2023-06-14T04:07:47;2.17;;;1.80;;
18046;SDS011;9148;51.454;13.862;2023-06-14T04:10:13;2.10;;;1.90;;
18046;SDS011;9148;51.454;13.862;2023-06-14T04:12:41;12.10;;;2.23;;
18046;SDS011;9148;51.454;13.862;2023-06-14T04:15:07;2.90;;;1.83;;
18046;SDS011;9148;51.454;13.862;2023-06-14T04:17:34;3.13;;;2.00;;
18046;SDS011;9148;51.454;13.862;2023-06-14T04:20:01;2.63;;;1.37;;
18046;SDS011;9148;51.454;13.862;2023-06-14T04:22:30;2.13;;;2.00;;
18046;SDS011;9148;51.454;13.862;2023-06-14T04:24:56;3.80;;;1.80;;
18046;SDS011;9148;51.454;13.862;2023-06-14T04:27:22;1.63;;;1.47;;
18046;SDS011;9148;51.454;13.862;2023-06-14T04:29:54;4.33;;;2.20;;
18046;SDS011;9148;51.454;13.862;2023-06-14T04:32:25;2.17;;;2.00;;
18046;SDS011;9148;51.454;13.862;2023-06-14T04:34:54;1.80;;;1.40;;
18046;SDS011;9148;51.454;13.862;2023-06-14T04:37:24;3.63;;;2.00;;
18046;SDS011;9148;51.454;13.862;2023-06-14T04:39:53;2.07;;;1.70;;
18046;SDS011;9148;51.454;13.862;2023-06-14T04:42:20;2.07;;;1.60;;
18046;SDS011;9148;51.454;13.862;2023-06-14T04:44:50;2.37;;;1.60;;
18046;SDS011;9148;51.454;13.862;2023-06-14T04:47:17;2.03;;;1.83;;
18046;SDS011;9148;51.454;13.862;2023-06-14T04:49:43;2.10;;;1.73;;
18046;SDS011;9148;51.454;13.862;2023-06-14T04:52:09;2.70;;;1.80;;
18046;SDS011;9148;51.454;13.862;2023-06-14T04:54:37;3.03;;;2.37;;
18046;SDS011;9148;51.454;13.862;2023-06-14T04:57:06;2.23;;;1.60;;
18046;SDS011;9148;51.454;13.862;2023-06-14T04:59:32;3.37;;;2.03;;
18046;SDS011;9148;51.454;13.862;2023-06-14T05:02:00;4.80;;;2.67;;
18046;SDS011;9148;51.454;13.862;2023-06-14T05:04:26;2.37;;;1.80;;
18046;SDS011;9148;51.454;13.862;2023-06-14T05:06:53;2.90;;;1.97;;
18046;SDS011;9148;51.454;13.862;2023-06-14T05:09:31;3.33;;;2.10;;
18046;SDS011;9148;51.454;13.862;2023-06-14T05:11:58;2.43;;;2.23;;
18046;SDS011;9148;51.454;13.862;2023-06-14T05:14:25;2.97;;;2.53;;
18046;SDS011;9148;51.454;13.862;2023-06-14T05:16:54;1.57;;;1.33;;
18046;SDS011;9148;51.454;13.862;2023-06-14T05:19:20;2.05;;;1.85;;
18046;SDS011;9148;51.454;13.862;2023-06-14T05:21:46;3.25;;;2.25;;
18046;SDS011;9148;51.454;13.862;2023-06-14T05:24:12;3.60;;;2.17;;
18046;SDS011;9148;51.454;13.862;2023-06-14T05:26:39;2.17;;;1.98;;
18046;SDS011;9148;51.454;13.862;2023-06-14T05:29:05;4.90;;;1.93;;
18046;SDS011;9148;51.454;13.862;2023-06-14T05:31:30;2.53;;;2.10;;
18046;SDS011;9148;51.454;13.862;2023-06-14T05:33:56;2.67;;;1.98;;
18046;SDS011;9148;51.454;13.862;2023-06-14T05:36:22;2.67;;;2.42;;
18046;SDS011;9148;51.454;13.862;2023-06-14T05:38:47;2.78;;;1.92;;
18046;SDS011;9148;51.454;13.862;2023-06-14T05:41:13;2.08;;;1.88;;
18046;SDS011;9148;51.454;13.862;2023-06-14T05:43:39;4.55;;;2.38;;
18046;SDS011;9148;51.454;13.862;2023-06-14T05:46:04;2.15;;;1.98;;
18046;SDS011;9148;51.454;13.862;2023-06-14T05:48:30;2.65;;;2.08;;
18046;SDS011;9148;51.454;13.862;2023-06-14T05:50:56;2.50;;;1.40;;
18046;SDS011;9148;51.454;13.862;2023-06-14T05:53:22;3.45;;;2.13;;
18046;SDS011;9148;51.454;13.862;2023-06-14T05:55:54;4.43;;;2.50;;
18046;SDS011;9148;51.454;13.862;2023-06-14T05:58:20;1.60;;;1.30;;
18046;SDS011;9148;51.454;13.862;2023-06-14T06:00:46;1.83;;;1.67;;
18046;SDS011;9148;51.454;13.862;2023-06-14T06:03:12;2.72;;;2.05;;
18046;SDS011;9148;51.454;13.862;2023-06-14T06:05:38;2.47;;;2.28;;
18046;SDS011;9148;51.454;13.862;2023-06-14T06:08:07;1.45;;;1.35;;
18046;SDS011;9148;51.454;13.862;2023-06-14T06:10:33;1.83;;;1.20;;
18046;SDS011;9148;51.454;13.862;2023-06-14T06:12:59;1.98;;;1.73;;
18046;SDS011;9148;51.454;13.862;2023-06-14T06:15:24;2.40;;;1.88;;
18046;SDS011;9148;51.454;13.862;2023-06-14T06:17:50;1.90;;;1.58;;
18046;SDS011;9148;51.454;13.862;2023-06-14T06:20:16;2.03;;;1.67;;
18046;SDS011;9148;51.454;13.862;2023-06-14T06:22:42;2.33;;;1.55;;
18046;SDS011;9148;51.454;13.862;2023-06-14T06:25:08;1.45;;;1.35;;
18046;SDS011;9148;51.454;13.862;2023-06-14T06:27:34;7.75;;;1.38;;
18046;SDS011;9148;51.454;13.862;2023-06-14T06:30:02;1.88;;;1.75;;
18046;SDS011;9148;51.454;13.862;2023-06-14T06:32:28;2.58;;;1.45;;
18046;SDS011;9148;51.454;13.862;2023-06-14T06:34:54;1.30;;;1.20;;
18046;SDS011;9148;51.454;13.862;2023-06-14T06:37:20;3.38;;;1.20;;
18046;SDS011;9148;51.454;13.862;2023-06-14T06:39:45;2.22;;;1.48;;
18046;SDS011;9148;51.454;13.862;2023-06-14T06:42:12;2.05;;;1.52;;
18046;SDS011;9148;51.454;13.862;2023-06-14T06:44:38;2.05;;;1.40;;
18046;SDS011;9148;51.454;13.862;2023-06-14T06:47:04;2.42;;;1.35;;
18046;SDS011;9148;51.454;13.862;2023-06-14T06:49:36;1.10;;;1.08;;
18046;SDS011;9148;51.454;13.862;2023-06-14T06:52:02;0.90;;;0.70;;
18046;SDS011;9148;51.454;13.862;2023-06-14T06:54:31;1.30;;;0.98;;
18046;SDS011;9148;51.454;13.862;2023-06-14T06:56:57;1.40;;;1.20;;
18046;SDS011;9148;51.454;13.862;2023-06-14T06:59:24;1.73;;;1.55;;
18046;SDS011;9148;51.454;13.862;2023-06-14T07:01:50;1.45;;;1.30;;
18046;SDS011;9148;51.454;13.862;2023-06-14T07:04:16;1.40;;;1.30;;
18046;SDS011;9148;51.454;13.862;2023-06-14T07:06:42;1.58;;;1.48;;
18046;SDS011;9148;51.454;13.862;2023-06-14T07:09:08;1.67;;;0.85;;
18046;SDS011;9148;51.454;13.862;2023-06-14T07:11:37;1.23;;;1.15;;
18046;SDS011;9148;51.454;13.862;2023-06-14T07:14:04;2.03;;;1.52;;
18046;SDS011;9148;51.454;13.862;2023-06-14T07:16:31;4.50;;;1.48;;
18046;SDS011;9148;51.454;13.862;2023-06-14T07:18:57;4.72;;;1.25;;
18046;SDS011;9148;51.454;13.862;2023-06-14T07:21:22;1.38;;;1.27;;
18046;SDS011;9148;51.454;13.862;2023-06-14T07:23:50;2.70;;;1.42;;
18046;SDS011;9148;51.454;13.862;2023-06-14T07:26:17;1.92;;;1.25;;
18046;SDS011;9148;51.454;13.862;2023-06-14T07:28:43;1.52;;;1.40;;
18046;SDS011;9148;51.454;13.862;2023-06-14T07:31:11;2.30;;;1.27;;
18046;SDS011;9148;51.454;13.862;2023-06-14T07:33:38;2.13;;;1.20;;
18046;SDS011;9148;51.454;13.862;2023-06-14T07:36:05;1.10;;;1.00;;
18046;SDS011;9148;51.454;13.862;2023-06-14T07:38:31;2.20;;;1.30;;
18046;SDS011;9148;51.454;13.862;2023-06-14T07:40:56;3.00;;;1.52;;
18046;SDS011;9148;51.454;13.862;2023-06-14T07:43:22;1.60;;;1.50;;
18046;SDS011;9148;51.454;13.862;2023-06-14T07:45:48;1.38;;;1.27;;
18046;SDS011;9148;51.454;13.862;2023-06-14T07:48:13;1.67;;;1.25;;
18046;SDS011;9148;51.454;13.862;2023-06-14T07:50:39;2.28;;;1.65;;
18046;SDS011;9148;51.454;13.862;2023-06-14T07:53:06;3.53;;;1.55;;
18046;SDS011;9148;51.454;13.862;2023-06-14T07:55:31;1.33;;;1.20;;
18046;SDS011;9148;51.454;13.862;2023-06-14T07:57:58;2.78;;;1.02;;
18046;SDS011;9148;51.454;13.862;2023-06-14T08:00:24;1.25;;;1.15;;
18046;SDS011;9148;51.454;13.862;2023-06-14T08:02:49;1.55;;;1.20;;
18046;SDS011;9148;51.454;13.862;2023-06-14T08:05:17;1.10;;;1.00;;
18046;SDS011;9148;51.454;13.862;2023-06-14T08:07:42;3.10;;;1.50;;
18046;SDS011;9148;51.454;13.862;2023-06-14T08:10:08;1.33;;;1.10;;
18046;SDS011;9148;51.454;13.862;2023-06-14T08:12:34;3.25;;;2.22;;
18046;SDS011;9148;51.454;13.862;2023-06-14T08:15:00;1.30;;;1.20;;
18046;SDS011;9148;51.454;13.862;2023-06-14T08:17:26;1.45;;;0.82;;
18046;SDS011;9148;51.454;13.862;2023-06-14T08:19:52;2.97;;;1.38;;
18046;SDS011;9148;51.454;13.862;2023-06-14T08:22:22;1.23;;;1.02;;
18046;SDS011;9148;51.454;13.862;2023-06-14T08:24:49;1.15;;;0.90;;
18046;SDS011;9148;51.454;13.862;2023-06-14T08:27:15;3.33;;;1.67;;
18046;SDS011;9148;51.454;13.862;2023-06-14T08:29:41;2.17;;;1.17;;
18046;SDS011;9148;51.454;13.862;2023-06-14T08:32:07;2.55;;;1.58;;
18046;SDS011;9148;51.454;13.862;2023-06-14T08:34:33;1.50;;;1.08;;
18046;SDS011;9148;51.454;13.862;2023-06-14T08:36:58;1.50;;;0.82;;
18046;SDS011;9148;51.454;13.862;2023-06-14T08:39:24;1.80;;;0.93;;
18046;SDS011;9148;51.454;13.862;2023-06-14T08:41:50;2.55;;;1.10;;
18046;SDS011;9148;51.454;13.862;2023-06-14T08:44:17;1.88;;;1.23;;
18046;SDS011;9148;51.454;13.862;2023-06-14T08:46:43;2.30;;;1.00;;
18046;SDS011;9148;51.454;13.862;2023-06-14T08:49:11;1.10;;;1.00;;
18046;SDS011;9148;51.454;13.862;2023-06-14T08:51:37;1.20;;;1.10;;
18046;SDS011;9148;51.454;13.862;2023-06-14T08:54:05;1.13;;;0.95;;
18046;SDS011;9148;51.454;13.862;2023-06-14T08:56:31;1.83;;;1.33;;
18046;SDS011;9148;51.454;13.862;2023-06-14T08:58:59;1.10;;;1.00;;
18046;SDS011;9148;51.454;13.862;2023-06-14T09:01:34;0.95;;;0.70;;
18046;SDS011;9148;51.454;13.862;2023-06-14T09:04:01;1.55;;;0.98;;
18046;SDS011;9148;51.454;13.862;2023-06-14T09:06:30;1.25;;;1.15;;
18046;SDS011;9148;51.454;13.862;2023-06-14T09:08:55;1.05;;;0.90;;
18046;SDS011;9148;51.454;13.862;2023-06-14T09:11:22;0.90;;;0.90;;
18046;SDS011;9148;51.454;13.862;2023-06-14T09:13:48;1.45;;;1.15;;
18046;SDS011;9148;51.454;13.862;2023-06-14T09:16:15;1.63;;;1.13;;
18046;SDS011;9148;51.454;13.862;2023-06-14T09:18:42;3.88;;;1.10;;
18046;SDS011;9148;51.454;13.862;2023-06-14T09:21:20;4.30;;;1.23;;
18046;SDS011;9148;51.454;13.862;2023-06-14T09:23:47;2.78;;;1.45;;
18046;SDS011;9148;51.454;13.862;2023-06-14T09:26:16;1.80;;;1.15;;
18046;SDS011;9148;51.454;13.862;2023-06-14T09:28:45;1.33;;;1.20;;
18046;SDS011;9148;51.454;13.862;2023-06-14T09:31:13;1.35;;;1.02;;
18046;SDS011;9148;51.454;13.862;2023-06-14T09:33:46;2.88;;;1.60;;
18046;SDS011;9148;51.454;13.862;2023-06-14T09:36:17;1.60;;;1.02;;
18046;SDS011;9148;51.454;13.862;2023-06-14T09:38:57;1.00;;;0.95;;
18046;SDS011;9148;51.454;13.862;2023-06-14T09:41:31;1.27;;;0.90;;
18046;SDS011;9148;51.454;13.862;2023-06-14T09:43:58;1.85;;;1.48;;
18046;SDS011;9148;51.454;13.862;2023-06-14T09:46:28;1.05;;;0.95;;
18046;SDS011;9148;51.454;13.862;2023-06-14T09:48:55;1.33;;;1.00;;
18046;SDS011;9148;51.454;13.862;2023-06-14T09:51:25;1.45;;;1.17;;
18046;SDS011;9148;51.454;13.862;2023-06-14T09:53:51;2.25;;;1.17;;
18046;SDS011;9148;51.454;13.862;2023-06-14T09:56:22;1.60;;;1.20;;
18046;SDS011;9148;51.454;13.862;2023-06-14T09:58:54;2.05;;;1.00;;
18046;SDS011;9148;51.454;13.862;2023-06-14T10:01:21;1.33;;;1.08;;
18046;SDS011;9148;51.454;13.862;2023-06-14T10:03:54;1.60;;;1.17;;
18046;SDS011;9148;51.454;13.862;2023-06-14T10:06:28;1.20;;;1.10;;
18046;SDS011;9148;51.454;13.862;2023-06-14T10:08:56;1.77;;;1.45;;
18046;SDS011;9148;51.454;13.862;2023-06-14T10:11:27;1.40;;;1.30;;
18046;SDS011;9148;51.454;13.862;2023-06-14T10:13:54;2.40;;;1.60;;
18046;SDS011;9148;51.454;13.862;2023-06-14T10:16:25;1.45;;;1.10;;
18046;SDS011;9148;51.454;13.862;2023-06-14T10:19:04;2.63;;;1.00;;
18046;SDS011;9148;51.454;13.862;2023-06-14T10:21:55;1.10;;;1.05;;
18046;SDS011;9148;51.454;13.862;2023-06-14T10:24:31;2.53;;;1.25;;
18046;SDS011;9148;51.454;13.862;2023-06-14T10:27:00;2.00;;;1.80;;
18046;SDS011;9148;51.454;13.862;2023-06-14T10:29:26;2.50;;;2.08;;
18046;SDS011;9148;51.454;13.862;2023-06-14T10:31:57;3.10;;;1.67;;
18046;SDS011;9148;51.454;13.862;2023-06-14T10:34:25;5.32;;;1.75;;
18046;SDS011;9148;51.454;13.862;2023-06-14T10:39:27;1.30;;;1.20;;
18046;SDS011;9148;51.454;13.862;2023-06-14T10:41:53;1.80;;;1.25;;
18046;SDS011;9148;51.454;13.862;2023-06-14T10:46:47;2.75;;;1.23;;
18046;SDS011;9148;51.454;13.862;2023-06-14T10:49:23;2.10;;;1.23;;
18046;SDS011;9148;51.454;13.862;2023-06-14T10:52:08;2.30;;;1.13;;
18046;SDS011;9148;51.454;13.862;2023-06-14T10:57:45;1.65;;;1.52;;
18046;SDS011;9148;51.454;13.862;2023-06-14T11:00:24;0.70;;;0.70;;
18046;SDS011;9148;51.454;13.862;2023-06-14T11:05:40;4.53;;;1.38;;
18046;SDS011;9148;51.454;13.862;2023-06-14T11:10:50;1.52;;;1.42;;
18046;SDS011;9148;51.454;13.862;2023-06-14T11:13:19;1.05;;;0.93;;
18046;SDS011;9148;51.454;13.862;2023-06-14T11:15:49;2.08;;;1.23;;
18046;SDS011;9148;51.454;13.862;2023-06-14T11:18:17;4.50;;;1.40;;
18046;SDS011;9148;51.454;13.862;2023-06-14T11:20:45;1.73;;;1.00;;
18046;SDS011;9148;51.454;13.862;2023-06-14T11:23:11;0.85;;;0.60;;
18046;SDS011;9148;51.454;13.862;2023-06-14T11:25:37;1.52;;;0.98;;
18046;SDS011;9148;51.454;13.862;2023-06-14T11:28:02;1.70;;;0.85;;
18046;SDS011;9148;51.454;13.862;2023-06-14T11:30:28;1.33;;;1.17;;
18046;SDS011;9148;51.454;13.862;2023-06-14T11:32:55;3.00;;;1.13;;
18046;SDS011;9148;51.454;13.862;2023-06-14T11:35:24;2.00;;;1.17;;
18046;SDS011;9148;51.454;13.862;2023-06-14T11:38:01;0.85;;;0.85;;
18046;SDS011;9148;51.454;13.862;2023-06-14T11:40:27;3.67;;;1.10;;
18046;SDS011;9148;51.454;13.862;2023-06-14T11:43:00;0.60;;;0.60;;
18046;SDS011;9148;51.454;13.862;2023-06-14T11:45:27;4.10;;;1.52;;
18046;SDS011;9148;51.454;13.862;2023-06-14T11:47:54;1.77;;;1.23;;
18046;SDS011;9148;51.454;13.862;2023-06-14T11:50:21;1.27;;;0.85;;
18046;SDS011;9148;51.454;13.862;2023-06-14T11:52:54;3.45;;;1.45;;
18046;SDS011;9148;51.454;13.862;2023-06-14T11:55:21;2.38;;;1.35;;
18046;SDS011;9148;51.454;13.862;2023-06-14T11:57:48;0.95;;;0.73;;
18046;SDS011;9148;51.454;13.862;2023-06-14T12:00:15;1.48;;;0.95;;
18046;SDS011;9148;51.454;13.862;2023-06-14T12:02:42;1.13;;;0.70;;
18046;SDS011;9148;51.454;13.862;2023-06-14T12:05:08;3.22;;;1.10;;
18046;SDS011;9148;51.454;13.862;2023-06-14T12:07:37;3.80;;;0.90;;
18046;SDS011;9148;51.454;13.862;2023-06-14T12:10:07;1.15;;;1.05;;
18046;SDS011;9148;51.454;13.862;2023-06-14T12:12:39;1.48;;;1.27;;
18046;SDS011;9148;51.454;13.862;2023-06-14T12:15:06;1.55;;;1.02;;
18046;SDS011;9148;51.454;13.862;2023-06-14T12:17:33;1.20;;;1.10;;
18046;SDS011;9148;51.454;13.862;2023-06-14T12:20:04;0.75;;;0.75;;
18046;SDS011;9148;51.454;13.862;2023-06-14T12:22:50;3.85;;;1.35;;
18046;SDS011;9148;51.454;13.862;2023-06-14T12:28:07;2.05;;;1.27;;
18046;SDS011;9148;51.454;13.862;2023-06-14T12:30:47;4.07;;;1.55;;
18046;SDS011;9148;51.454;13.862;2023-06-14T12:33:13;1.25;;;1.05;;
18046;SDS011;9148;51.454;13.862;2023-06-14T12:35:38;1.95;;;1.40;;
18046;SDS011;9148;51.454;13.862;2023-06-14T12:38:04;0.80;;;0.77;;
18046;SDS011;9148;51.454;13.862;2023-06-14T12:40:30;2.10;;;1.13;;
18046;SDS011;9148;51.454;13.862;2023-06-14T12:42:56;1.27;;;0.95;;
18046;SDS011;9148;51.454;13.862;2023-06-14T12:45:22;1.30;;;0.90;;
18046;SDS011;9148;51.454;13.862;2023-06-14T12:47:48;3.70;;;1.30;;
18046;SDS011;9148;51.454;13.862;2023-06-14T12:50:13;1.33;;;0.90;;
18046;SDS011;9148;51.454;13.862;2023-06-14T12:52:39;0.90;;;0.80;;
18046;SDS011;9148;51.454;13.862;2023-06-14T12:55:06;1.33;;;0.82;;
18046;SDS011;9148;51.454;13.862;2023-06-14T12:57:32;2.20;;;0.98;;
18046;SDS011;9148;51.454;13.862;2023-06-14T12:59:59;1.58;;;1.45;;
18046;SDS011;9148;51.454;13.862;2023-06-14T13:02:25;1.58;;;0.80;;
18046;SDS011;9148;51.454;13.862;2023-06-14T13:04:51;3.30;;;1.10;;
18046;SDS011;9148;51.454;13.862;2023-06-14T13:07:17;0.90;;;0.80;;
18046;SDS011;9148;51.454;13.862;2023-06-14T13:09:43;0.98;;;0.80;;
18046;SDS011;9148;51.454;13.862;2023-06-14T13:12:10;0.80;;;0.80;;
18046;SDS011;9148;51.454;13.862;2023-06-14T13:14:39;1.30;;;1.20;;
18046;SDS011;9148;51.454;13.862;2023-06-14T13:17:11;0.80;;;0.80;;
18046;SDS011;9148;51.454;13.862;2023-06-14T13:19:37;0.52;;;0.52;;
18046;SDS011;9148;51.454;13.862;2023-06-14T13:22:03;1.00;;;0.80;;
18046;SDS011;9148;51.454;13.862;2023-06-14T13:24:29;1.00;;;0.77;;
18046;SDS011;9148;51.454;13.862;2023-06-14T13:26:56;1.88;;;0.95;;
18046;SDS011;9148;51.454;13.862;2023-06-14T13:29:22;0.60;;;0.60;;
18046;SDS011;9148;51.454;13.862;2023-06-14T13:31:49;1.58;;;0.90;;
18046;SDS011;9148;51.454;13.862;2023-06-14T13:34:14;1.45;;;0.90;;
18046;SDS011;9148;51.454;13.862;2023-06-14T13:36:40;1.35;;;0.88;;
18046;SDS011;9148;51.454;13.862;2023-06-14T13:39:06;1.67;;;0.52;;
18046;SDS011;9148;51.454;13.862;2023-06-14T13:41:32;1.73;;;1.17;;
18046;SDS011;9148;51.454;13.862;2023-06-14T13:43:59;1.40;;;1.30;;
18046;SDS011;9148;51.454;13.862;2023-06-14T13:46:26;0.77;;;0.77;;
18046;SDS011;9148;51.454;13.862;2023-06-14T13:48:51;1.88;;;0.80;;
18046;SDS011;9148;51.454;13.862;2023-06-14T13:51:17;1.10;;;1.00;;
18046;SDS011;9148;51.454;13.862;2023-06-14T13:53:49;1.13;;;0.88;;
18046;SDS011;9148;51.454;13.862;2023-06-14T13:56:15;1.58;;;1.15;;
18046;SDS011;9148;51.454;13.862;2023-06-14T13:58:42;0.70;;;0.70;;
18046;SDS011;9148;51.454;13.862;2023-06-14T14:01:08;1.80;;;0.88;;
18046;SDS011;9148;51.454;13.862;2023-06-14T14:03:34;0.85;;;0.85;;
18046;SDS011;9148;51.454;13.862;2023-06-14T14:06:01;0.80;;;0.80;;
18046;SDS011;9148;51.454;13.862;2023-06-14T14:08:27;2.03;;;0.95;;
18046;SDS011;9148;51.454;13.862;2023-06-14T14:10:53;1.35;;;1.15;;
18046;SDS011;9148;51.454;13.862;2023-06-14T14:13:19;0.70;;;0.70;;
18046;SDS011;9148;51.454;13.862;2023-06-14T14:15:46;0.95;;;0.88;;
18046;SDS011;9148;51.454;13.862;2023-06-14T14:18:11;1.02;;;0.77;;
18046;SDS011;9148;51.454;13.862;2023-06-14T14:20:37;0.73;;;0.68;;
18046;SDS011;9148;51.454;13.862;2023-06-14T14:23:02;1.48;;;0.80;;
18046;SDS011;9148;51.454;13.862;2023-06-14T14:25:28;2.88;;;0.63;;
18046;SDS011;9148;51.454;13.862;2023-06-14T14:27:54;1.08;;;0.70;;
18046;SDS011;9148;51.454;13.862;2023-06-14T14:30:19;1.05;;;0.93;;
18046;SDS011;9148;51.454;13.862;2023-06-14T14:32:48;1.58;;;0.60;;
18046;SDS011;9148;51.454;13.862;2023-06-14T14:35:16;2.70;;;0.85;;
18046;SDS011;9148;51.454;13.862;2023-06-14T14:37:42;1.85;;;1.05;;
18046;SDS011;9148;51.454;13.862;2023-06-14T14:40:08;2.45;;;1.27;;
18046;SDS011;9148;51.454;13.862;2023-06-14T14:42:35;3.17;;;1.23;;
18046;SDS011;9148;51.454;13.862;2023-06-14T14:45:01;1.42;;;0.90;;
18046;SDS011;9148;51.454;13.862;2023-06-14T14:47:27;1.13;;;1.00;;
18046;SDS011;9148;51.454;13.862;2023-06-14T14:49:53;1.92;;;1.17;;
18046;SDS011;9148;51.454;13.862;2023-06-14T14:52:18;1.35;;;1.00;;
18046;SDS011;9148;51.454;13.862;2023-06-14T14:54:44;0.95;;;0.88;;
18046;SDS011;9148;51.454;13.862;2023-06-14T14:57:10;0.75;;;0.75;;
18046;SDS011;9148;51.454;13.862;2023-06-14T14:59:35;1.90;;;1.33;;
18046;SDS011;9148;51.454;13.862;2023-06-14T15:02:01;1.65;;;1.38;;
18046;SDS011;9148;51.454;13.862;2023-06-14T15:04:27;0.68;;;0.55;;
18046;SDS011;9148;51.454;13.862;2023-06-14T15:06:52;1.15;;;0.93;;
18046;SDS011;9148;51.454;13.862;2023-06-14T15:09:18;0.90;;;0.60;;